Time;durP1;ratioP1;P1;durP2;ratioP2;P2;SDS_P1;SDS_P2;PMS_P1;PMS_P2;Temp;Humidity;BMP_temperature;BMP_pressure;BME280_temperature;BME280_humidity;BME280_pressure;Samples;Min_cycle;Max_cycle;Signal;HPM_P1;HPM_P2
2023/09/17 00:02:15;;;;;;;13.97;10.83;;;;;;;-141.97;72.38;47574.81;5033271;28;20216;-83
2023/09/17 00:04:40;;;;;;;14.27;11.30;;;;;;;-141.97;72.37;47592.13;5033334;28;20653;-81
2023/09/17 00:07:06;;;;;;;15.30;10.33;;;;;;;-141.97;72.37;47780.47;5034447;28;20208;-82
2023/09/17 00:09:31;;;;;;;17.23;10.90;;;;;;;-141.97;72.17;47680.53;5031817;28;20506;-82
2023/09/17 00:11:57;;;;;;;14.97;10.30;;;;;;;-141.97;72.10;47580.59;5032831;28;20710;-83
2023/09/17 00:14:22;;;;;;;15.17;10.70;;;;;;;-141.97;72.54;47609.41;5032805;28;20169;-83
2023/09/17 00:16:48;;;;;;;13.93;10.80;;;;;;;-141.97;72.62;47578.66;5032737;28;20194;-82
2023/09/17 00:19:14;;;;;;;14.67;10.57;;;;;;;-141.97;72.73;47490.25;5032952;28;20166;-83
2023/09/17 00:21:39;;;;;;;14.47;10.93;;;;;;;-141.97;72.72;47417.22;5033744;28;20174;-84
2023/09/17 00:24:05;;;;;;;13.97;10.40;;;;;;;-141.97;73.37;47542.16;5032291;28;20284;-85
2023/09/17 00:26:30;;;;;;;13.70;10.53;;;;;;;-141.97;73.64;47613.25;5031586;28;20253;-83
2023/09/17 00:28:55;;;;;;;20.73;12.70;;;;;;;-141.97;74.48;47813.16;5032207;28;20197;-81
2023/09/17 00:31:21;;;;;;;15.30;12.10;;;;;;;-141.97;74.78;47524.84;5032017;28;20174;-81
2023/09/17 00:33:46;;;;;;;17.13;13.10;;;;;;;-141.97;74.58;47607.50;5031828;28;20181;-81
2023/09/17 00:36:12;;;;;;;18.03;12.97;;;;;;;-141.97;74.90;47582.50;5032001;28;20202;-83
2023/09/17 00:38:37;;;;;;;16.50;13.03;;;;;;;-141.97;75.24;47601.72;5032020;28;20235;-83
2023/09/17 00:41:03;;;;;;;18.23;13.10;;;;;;;-141.97;75.50;47574.81;5048613;28;20184;-83
2023/09/17 00:43:30;;;;;;;18.83;13.70;;;;;;;-141.97;75.61;47599.81;5034427;28;20190;-82
2023/09/17 00:45:55;;;;;;;19.10;13.70;;;;;;;-141.97;75.94;47638.25;5032806;28;20161;-82
2023/09/17 00:48:21;;;;;;;16.23;13.00;;;;;;;-141.97;76.11;47576.75;5019504;28;20261;-82
2023/09/17 00:50:47;;;;;;;18.57;13.63;;;;;;;-141.97;77.11;47501.78;5012672;28;20220;-82
2023/09/17 00:53:14;;;;;;;17.20;13.03;;;;;;;-141.97;76.83;47515.22;5015042;28;20175;-81
2023/09/17 00:55:40;;;;;;;18.57;12.90;;;;;;;-141.97;77.18;47569.06;5013617;28;20179;-82
2023/09/17 00:58:06;;;;;;;18.07;12.50;;;;;;;-141.97;77.29;47578.66;5013206;28;20682;-80
2023/09/17 01:00:35;;;;;;;16.40;12.30;;;;;;;-141.97;77.21;47638.25;5012987;28;20158;-82
2023/09/17 01:03:02;;;;;;;18.07;12.40;;;;;;;-141.97;77.15;47351.88;5012039;28;20198;-81
2023/09/17 01:05:36;;;;;;;16.10;12.20;;;;;;;-141.97;76.85;47609.41;5011865;28;20155;-82
2023/09/17 01:08:06;;;;;;;17.50;12.83;;;;;;;-141.97;76.96;47580.59;5011036;28;20170;-82
2023/09/17 01:10:33;;;;;;;16.97;12.27;;;;;;;-141.97;77.50;47607.50;5012075;28;20654;-83
2023/09/17 01:13:00;;;;;;;19.27;14.43;;;;;;;-141.97;77.92;47453.72;5011885;28;20284;-81
2023/09/17 01:15:27;;;;;;;20.87;14.07;;;;;;;-141.97;78.04;47561.38;5011602;28;20169;-82
2023/09/17 01:17:54;;;;;;;19.13;13.97;;;;;;;-141.97;78.45;47730.50;5012096;28;20201;-81
2023/09/17 01:20:26;;;;;;;16.60;12.93;;;;;;;-141.97;78.25;47595.97;5012093;28;20166;-83
2023/09/17 01:22:59;;;;;;;18.20;13.40;;;;;;;-141.97;78.76;47590.19;5010612;28;20595;-83
2023/09/17 01:25:46;;;;;;;19.47;14.27;;;;;;;-141.97;78.43;47759.34;5011696;28;20170;-83
2023/09/17 01:28:13;;;;;;;18.83;14.07;;;;;;;-141.97;78.79;47569.06;5011653;28;20170;-83
2023/09/17 01:30:42;;;;;;;20.00;13.57;;;;;;;-141.97;79.00;47601.72;5011574;28;20167;-84
2023/09/17 01:33:10;;;;;;;21.40;13.57;;;;;;;-141.97;79.03;47718.97;5011675;28;20610;-83
2023/09/17 01:35:56;;;;;;;19.50;13.57;;;;;;;-141.97;79.10;47622.88;5011964;28;20644;-82
2023/09/17 01:38:32;;;;;;;21.17;14.93;;;;;;;-141.97;79.80;47359.56;5011186;28;20170;-82
2023/09/17 01:41:01;;;;;;;21.97;15.03;;;;;;;-141.97;80.30;47620.94;5010589;28;20169;-83
2023/09/17 01:43:26;;;;;;;20.17;15.03;;;;;;;-141.97;80.34;47469.09;5011221;28;20195;-81
2023/09/17 01:45:52;;;;;;;20.23;14.27;;;;;;;-141.97;80.32;47380.69;5011184;28;20213;-83
2023/09/17 01:48:19;;;;;;;19.13;14.33;;;;;;;-141.97;80.42;47509.47;5011368;28;20163;-83
2023/09/17 01:50:45;;;;;;;21.73;15.00;;;;;;;-141.97;80.13;47584.44;5011240;28;20173;-83
2023/09/17 01:53:13;;;;;;;20.70;15.33;;;;;;;-141.97;79.75;47592.13;5011348;28;20169;-82
2023/09/17 01:55:41;;;;;;;20.43;14.63;;;;;;;-141.97;79.81;47815.09;5011198;28;20201;-83
2023/09/17 01:58:09;;;;;;;19.70;14.80;;;;;;;-141.97;79.47;47519.06;5015238;28;20167;-83
2023/09/17 02:00:35;;;;;;;19.80;14.90;;;;;;;-141.97;78.87;47670.91;5022586;28;20182;-82
2023/09/17 02:03:02;;;;;;;25.77;15.37;;;;;;;-141.97;78.63;47415.28;5035987;28;20225;-81
2023/09/17 02:05:28;;;;;;;20.73;14.97;;;;;;;-141.97;78.63;47613.25;5017153;28;20170;-83
2023/09/17 02:07:53;;;;;;;20.37;15.00;;;;;;;-141.97;78.75;47711.28;5011138;28;20273;-82
2023/09/17 02:10:20;;;;;;;21.83;15.43;;;;;;;-141.97;78.48;47657.47;5025775;28;20167;-83
2023/09/17 02:12:46;;;;;;;21.23;14.40;;;;;;;-141.97;78.53;47607.50;5010825;28;20261;-84
2023/09/17 02:15:12;;;;;;;21.07;14.67;;;;;;;-141.97;78.86;47569.06;5011025;28;20195;-83
2023/09/17 02:17:38;;;;;;;21.70;14.70;;;;;;;-141.97;78.38;47588.28;5010705;28;20489;-83
2023/09/17 02:20:08;;;;;;;19.70;14.47;;;;;;;-141.97;78.62;47434.50;5010644;28;20186;-83
2023/09/17 02:22:33;;;;;;;19.57;15.00;;;;;;;-141.97;79.14;47676.69;5010805;28;20206;-83
2023/09/17 02:24:58;;;;;;;20.70;14.87;;;;;;;-141.97;79.41;47611.34;5025976;28;20270;-84
2023/09/17 02:27:24;;;;;;;21.83;15.47;;;;;;;-141.97;79.06;47640.16;5011122;28;20163;-83
2023/09/17 02:29:49;;;;;;;25.67;18.03;;;;;;;-141.97;79.06;47588.28;5014867;28;20194;-83
2023/09/17 02:32:15;;;;;;;24.43;17.30;;;;;;;-141.97;79.10;47703.59;5022378;28;20234;-85
2023/09/17 02:34:40;;;;;;;25.50;18.13;;;;;;;-141.97;78.85;47830.47;5013729;28;20199;-83
2023/09/17 02:37:06;;;;;;;24.20;17.00;;;;;;;-141.97;79.37;47751.66;5026718;28;20171;-84
2023/09/17 02:39:31;;;;;;;27.77;17.53;;;;;;;-141.97;80.45;47597.88;5012222;28;20195;-83
2023/09/17 02:41:58;;;;;;;24.40;16.87;;;;;;;-141.97;80.01;47442.19;5022241;28;20182;-84
2023/09/17 02:44:25;;;;;;;25.40;17.10;;;;;;;-141.97;80.11;47609.41;5017430;28;20167;-84
2023/09/17 02:46:51;;;;;;;24.07;17.07;;;;;;;-141.97;80.68;47603.66;5011302;28;20166;-84
2023/09/17 02:49:16;;;;;;;23.30;16.00;;;;;;;-141.97;81.13;47561.38;5011646;28;20666;-84
2023/09/17 02:51:42;;;;;;;22.83;16.47;;;;;;;-141.97;81.15;47534.44;5011717;28;20186;-83
2023/09/17 02:54:07;;;;;;;23.70;16.53;;;;;;;-141.97;81.04;47626.72;5015473;28;20225;-83
2023/09/17 02:56:33;;;;;;;21.93;16.03;;;;;;;-141.97;81.80;47384.53;5015700;28;20167;-82
2023/09/17 02:58:58;;;;;;;24.67;16.17;;;;;;;-141.97;81.63;47549.84;5014808;28;20162;-82
2023/09/17 03:01:24;;;;;;;23.43;16.40;;;;;;;-141.97;82.16;47607.50;5029262;28;20179;-83
2023/09/17 03:03:50;;;;;;;23.30;16.33;;;;;;;-141.97;81.74;47640.16;5013889;28;20233;-84
2023/09/17 03:06:16;;;;;;;23.93;16.70;;;;;;;-141.97;81.74;47438.34;5014578;28;20178;-83
2023/09/17 03:08:42;;;;;;;22.27;16.77;;;;;;;-141.97;81.66;47611.34;5014256;28;20166;-83
2023/09/17 03:11:12;;;;;;;22.33;15.90;;;;;;;-141.97;82.13;47638.25;5012659;28;20663;-83
2023/09/17 03:13:39;;;;;;;24.80;17.80;;;;;;;-141.97;82.28;47649.78;5014420;28;20205;-82
2023/09/17 03:16:05;;;;;;;24.57;17.33;;;;;;;-141.97;82.64;47555.59;5013974;28;20632;-82
2023/09/17 03:18:30;;;;;;;25.37;17.43;;;;;;;-141.97;83.10;47617.09;5016400;28;20209;-83
2023/09/17 03:20:56;;;;;;;24.37;16.67;;;;;;;-141.97;83.47;47422.97;5027363;28;20242;-83
2023/09/17 03:23:21;;;;;;;23.00;17.20;;;;;;;-141.97;83.37;47488.31;5021376;28;20205;-85
2023/09/17 03:25:46;;;;;;;21.63;16.77;;;;;;;-141.97;83.54;47628.63;5020219;28;20167;-83
2023/09/17 03:28:12;;;;;;;26.63;17.60;;;;;;;-141.97;83.65;47582.50;5013975;28;20171;-83
2023/09/17 03:30:38;;;;;;;24.17;16.60;;;;;;;-141.97;83.53;47603.66;5013460;28;20198;-84
2023/09/17 03:33:05;;;;;;;21.83;16.43;;;;;;;-141.97;83.25;47609.41;5013697;28;20173;-83
2023/09/17 03:35:32;;;;;;;23.93;17.07;;;;;;;-141.97;82.38;47642.09;5012330;28;20535;-83
2023/09/17 03:37:57;;;;;;;29.70;16.97;;;;;;;-141.97;81.51;47380.69;5013395;28;20201;-84
2023/09/17 03:40:23;;;;;;;25.27;16.43;;;;;;;-141.97;80.92;47626.72;5013379;28;20198;-83
2023/09/17 03:42:48;;;;;;;23.93;17.33;;;;;;;-141.97;80.05;47720.91;5015215;28;20198;-83
2023/09/17 03:45:14;;;;;;;26.40;16.87;;;;;;;-141.97;79.57;47761.25;5040706;28;20175;-83
2023/09/17 03:47:41;;;;;;;24.10;16.90;;;;;;;-141.97;79.37;47661.31;5037173;28;20177;-84
2023/09/17 03:50:09;;;;;;;24.37;17.07;;;;;;;-141.97;79.41;47611.34;5012095;28;20658;-84
2023/09/17 03:52:37;;;;;;;24.73;16.67;;;;;;;-141.97;79.49;47799.72;5011914;28;20618;-85
2023/09/17 03:55:07;;;;;;;25.60;16.87;;;;;;;-141.97;79.01;47640.16;5012198;28;20769;-84
2023/09/17 03:57:34;;;;;;;23.87;16.63;;;;;;;-141.97;79.35;47619.03;5013052;28;20167;-84
2023/09/17 04:00:07;;;;;;;23.33;16.90;;;;;;;-141.97;79.51;47784.34;5018106;28;20238;-83
2023/09/17 04:02:41;;;;;;;26.20;17.73;;;;;;;-141.97;79.28;47609.41;5014905;28;20242;-84
2023/09/17 04:05:12;;;;;;;26.37;17.07;;;;;;;-141.97;79.07;47665.16;5012363;28;20646;-84
2023/09/17 04:07:40;;;;;;;25.83;17.30;;;;;;;-141.97;78.79;47661.31;5012968;28;20163;-84
2023/09/17 04:10:06;;;;;;;27.77;19.03;;;;;;;-141.97;78.25;47607.50;5013131;28;20254;-84
2023/09/17 04:12:32;;;;;;;27.33;18.80;;;;;;;-141.97;78.31;47615.19;5012692;28;20223;-84
2023/09/17 04:14:58;;;;;;;26.80;18.63;;;;;;;-141.97;78.21;47805.47;5012516;28;20216;-84
2023/09/17 04:17:23;;;;;;;25.07;18.10;;;;;;;-141.97;78.78;47622.88;5013361;28;20580;-83
2023/09/17 04:19:50;;;;;;;29.17;19.67;;;;;;;-141.97;78.85;47595.97;5013617;28;20174;-84
2023/09/17 04:22:16;;;;;;;29.30;19.07;;;;;;;-141.97;79.14;47667.06;5028135;28;20170;-84
2023/09/17 04:24:42;;;;;;;29.53;19.17;;;;;;;-141.97;79.69;47640.16;5038955;28;20265;-84
2023/09/17 04:27:08;;;;;;;27.87;19.97;;;;;;;-141.97;79.73;47642.09;5054836;28;20192;-85
2023/09/17 04:29:34;;;;;;;30.47;19.40;;;;;;;-141.97;79.37;47776.63;5048267;28;20198;-84
2023/09/17 04:31:59;;;;;;;28.20;19.80;;;;;;;-141.97;78.43;47569.06;5032557;28;20166;-84
2023/09/17 04:34:25;;;;;;;28.67;19.40;;;;;;;-141.97;78.65;47490.25;5032452;28;20192;-84
2023/09/17 04:36:51;;;;;;;31.87;19.20;;;;;;;-141.97;78.41;47745.88;5032744;28;20162;-83
2023/09/17 04:39:16;;;;;;;26.97;19.10;;;;;;;-141.97;78.28;47547.91;5032367;28;20227;-84
2023/09/17 04:41:42;;;;;;;34.70;18.23;;;;;;;-141.97;80.47;47615.19;5033444;28;20212;-84
2023/09/17 04:44:10;;;;;;;27.63;18.63;;;;;;;-141.97;82.50;47511.38;5033572;28;20208;-84
2023/09/17 04:46:42;;;;;;;26.10;18.17;;;;;;;-141.97;84.30;47634.41;5044577;28;20225;-83
2023/09/17 04:49:11;;;;;;;28.07;18.70;;;;;;;-141.97;83.16;47634.41;5033194;28;20209;-83
2023/09/17 04:51:37;;;;;;;27.53;17.83;;;;;;;-141.97;82.62;47684.38;5038612;28;20204;-83
2023/09/17 04:54:04;;;;;;;27.83;18.03;;;;;;;-141.97;81.95;47634.41;5043808;28;20561;-81
2023/09/17 04:56:32;;;;;;;26.57;18.30;;;;;;;-141.97;81.08;47632.47;5031684;28;20197;-83
2023/09/17 04:58:59;;;;;;;29.67;18.60;;;;;;;-141.97;79.41;47768.94;5032076;28;20182;-83
2023/09/17 05:01:24;;;;;;;29.87;19.10;;;;;;;-141.97;78.70;47576.75;5035310;28;20228;-83
2023/09/17 05:03:50;;;;;;;30.37;19.90;;;;;;;-141.97;78.29;47803.56;5032896;28;20206;-82
2023/09/17 05:06:15;;;;;;;28.63;19.33;;;;;;;-141.97;78.27;47624.78;5032700;28;20193;-82
2023/09/17 05:08:41;;;;;;;29.23;19.37;;;;;;;-141.97;78.48;47603.66;5033543;28;20617;-82
2023/09/17 05:11:06;;;;;;;30.10;20.27;;;;;;;-141.97;77.96;47561.38;5032103;28;20174;-83
2023/09/17 05:13:32;;;;;;;32.30;19.63;;;;;;;-141.97;77.93;47446.03;5030382;28;20700;-84
2023/09/17 05:15:57;;;;;;;29.83;19.07;;;;;;;-141.97;77.53;47638.25;5036942;28;20589;-83
2023/09/17 05:18:23;;;;;;;29.23;18.60;;;;;;;-141.97;76.99;47376.84;5041814;28;20233;-81
2023/09/17 05:20:49;;;;;;;36.73;18.67;;;;;;;-141.97;76.77;47653.63;5031160;28;20182;-82
2023/09/17 05:23:16;;;;;;;30.07;20.30;;;;;;;-141.97;76.75;47565.22;5016479;28;20202;-84
2023/09/17 05:25:41;;;;;;;29.10;19.07;;;;;;;-141.97;76.71;47578.66;5028164;28;20170;-84
2023/09/17 05:28:07;;;;;;;30.53;20.57;;;;;;;-141.97;78.51;47578.66;5012448;28;20201;-82
2023/09/17 05:30:34;;;;;;;27.13;19.13;;;;;;;-141.97;79.29;47649.78;5011694;28;20166;-83
2023/09/17 05:33:00;;;;;;;30.73;19.77;;;;;;;-141.97;79.58;47588.28;5012741;28;20231;-84
2023/09/17 05:35:26;;;;;;;28.37;19.63;;;;;;;-141.97;79.16;47553.69;5011183;28;20167;-83
2023/09/17 05:37:51;;;;;;;30.40;20.27;;;;;;;-141.97;78.28;47344.19;5012110;28;20167;-83
2023/09/17 05:40:16;;;;;;;28.03;19.43;;;;;;;-141.97;77.77;47472.94;5011982;28;20677;-83
2023/09/17 05:42:43;;;;;;;29.53;18.90;;;;;;;-141.97;77.94;47586.34;5010980;28;20195;-83
2023/09/17 05:45:10;;;;;;;30.47;19.47;;;;;;;-141.97;77.59;47626.72;5030196;28;20206;-83
2023/09/17 05:47:35;;;;;;;33.37;20.30;;;;;;;-141.97;78.31;47801.63;5043126;28;20175;-83
2023/09/17 05:50:01;;;;;;;32.93;22.00;;;;;;;-141.97;77.51;47390.31;5012108;28;20233;-81
2023/09/17 05:52:26;;;;;;;45.47;28.47;;;;;;;-141.97;77.24;47551.75;5011592;28;20194;-82
2023/09/17 05:54:51;;;;;;;36.20;24.63;;;;;;;-141.97;76.57;47476.78;5011417;28;20199;-82
2023/09/17 05:57:17;;;;;;;36.93;24.20;;;;;;;-141.97;75.91;47584.44;5026559;28;20252;-83
2023/09/17 05:59:43;;;;;;;35.60;22.73;;;;;;;-141.97;75.37;47820.84;5009895;28;20179;-83
2023/09/17 06:02:11;;;;;;;32.40;21.37;;;;;;;-141.97;74.32;47536.38;5011007;28;20171;-83
2023/09/17 06:04:40;;;;;;;34.73;22.23;;;;;;;-141.97;72.91;47496.00;5018291;28;20173;-84
2023/09/17 06:07:08;;;;;;;31.10;20.67;;;;;;;-141.97;72.88;47582.50;5025008;28;20542;-88
2023/09/17 06:09:34;;;;;;;35.17;22.03;;;;;;;-141.97;72.64;47592.13;5032477;28;20266;-82
2023/09/17 06:11:59;;;;;;;33.77;21.13;;;;;;;-141.97;71.97;47542.16;5039716;28;20245;-82
2023/09/17 06:14:24;;;;;;;28.50;19.50;;;;;;;-141.97;71.40;47422.97;5035472;28;20188;-82
2023/09/17 06:16:50;;;;;;;28.70;19.27;;;;;;;-141.97;70.62;47513.31;5031573;28;20182;-82
2023/09/17 06:19:15;;;;;;;27.30;18.07;;;;;;;-141.97;68.95;47603.66;5030882;28;20655;-82
2023/09/17 06:21:41;;;;;;;26.17;17.00;;;;;;;-141.97;68.63;47615.19;5030724;28;20162;-82
2023/09/17 06:24:07;;;;;;;23.77;16.13;;;;;;;-141.97;67.72;47484.47;5030403;28;20189;-82
2023/09/17 06:26:34;;;;;;;26.53;16.93;;;;;;;-141.97;67.09;47486.41;5020662;28;20628;-82
2023/09/17 06:28:59;;;;;;;29.73;16.73;;;;;;;-141.97;67.31;47720.91;5014822;28;20167;-81
2023/09/17 06:31:25;;;;;;;24.33;15.73;;;;;;;-141.97;66.21;47461.41;5014469;28;20185;-83
2023/09/17 06:33:51;;;;;;;23.10;14.77;;;;;;;-141.97;67.19;47692.06;5014650;28;20547;-84
2023/09/17 06:36:16;;;;;;;28.43;18.17;;;;;;;-141.97;68.13;47619.03;5029877;28;20573;-83
2023/09/17 06:38:42;;;;;;;25.80;15.43;;;;;;;-141.97;67.59;47732.44;5014713;28;20632;-83
2023/09/17 06:41:07;;;;;;;26.93;15.87;;;;;;;-141.97;66.24;47415.28;5015194;28;20517;-84
2023/09/17 06:43:33;;;;;;;24.43;15.10;;;;;;;-141.97;65.47;47770.88;5015557;28;20256;-85
2023/09/17 06:45:59;;;;;;;26.37;15.57;;;;;;;-141.97;65.81;47557.53;5015592;28;20167;-83
2023/09/17 06:48:25;;;;;;;21.30;14.63;;;;;;;-141.97;65.58;47634.41;5018086;28;20163;-85
2023/09/17 06:50:50;;;;;;;25.20;15.60;;;;;;;-141.97;65.21;47611.34;5031571;28;20181;-87
2023/09/17 06:53:16;;;;;;;23.57;15.43;;;;;;;-141.97;64.31;47415.28;5033052;28;20257;-84
2023/09/17 06:55:41;;;;;;;27.47;17.50;;;;;;;-141.97;62.96;47574.81;5014996;28;20187;-84
2023/09/17 06:58:07;;;;;;;26.60;16.07;;;;;;;-141.97;61.83;47799.72;5014071;28;20282;-83
2023/09/17 07:00:32;;;;;;;26.27;15.80;;;;;;;-141.97;61.44;47507.53;5017325;28;20229;-85
2023/09/17 07:02:57;;;;;;;23.83;15.67;;;;;;;-141.97;62.89;47442.19;5015912;28;20587;-85
2023/09/17 07:05:23;;;;;;;24.07;16.53;;;;;;;-141.97;62.37;47745.88;5015111;28;20567;-85
2023/09/17 07:07:48;;;;;;;25.70;16.87;;;;;;;-141.97;62.98;47749.72;5015811;28;20642;-86
2023/09/17 07:10:14;;;;;;;27.00;17.30;;;;;;;-141.97;62.78;47613.25;5031294;28;20245;-84
2023/09/17 07:12:39;;;;;;;27.40;17.50;;;;;;;-141.97;61.87;47455.66;5036549;28;20230;-84
2023/09/17 07:15:06;;;;;;;31.23;17.48;;;;;;;-141.97;61.80;47765.09;5030859;28;20175;-85
2023/09/17 07:17:31;;;;;;;29.37;17.70;;;;;;;-141.97;63.89;47569.06;5033335;28;20190;-84
2023/09/17 07:19:57;;;;;;;28.90;18.03;;;;;;;-141.97;62.91;47534.44;5026670;28;20254;-87
2023/09/17 07:22:22;;;;;;;25.20;17.37;;;;;;;-141.97;61.56;47511.38;5018968;28;20190;-87
2023/09/17 07:24:48;;;;;;;25.27;17.40;;;;;;;-141.97;60.47;47549.84;5018830;28;20234;-89
2023/09/17 07:27:14;;;;;;;26.55;17.27;;;;;;;-141.97;61.59;47561.38;5031602;28;20268;-87
2023/09/17 07:29:39;;;;;;;27.13;16.38;;;;;;;-141.97;61.83;47561.38;5016324;28;20177;-87
2023/09/17 07:32:05;;;;;;;26.10;16.93;;;;;;;-141.97;62.08;47553.69;5030717;28;20561;-88
2023/09/17 07:34:31;;;;;;;28.20;17.63;;;;;;;-141.97;61.85;47526.75;5030504;28;20232;-86
2023/09/17 07:36:56;;;;;;;25.13;17.73;;;;;;;-141.97;62.38;47742.03;5014847;28;20229;-88
2023/09/17 07:39:22;;;;;;;29.50;19.80;;;;;;;-141.97;62.01;47576.75;5013163;28;20175;-86
2023/09/17 07:41:48;;;;;;;23.88;15.95;;;;;;;-141.97;61.51;47799.72;5014854;28;20194;-87
2023/09/17 07:44:13;;;;;;;24.60;17.58;;;;;;;-141.97;61.63;47422.97;5046940;28;20221;-87
2023/09/17 07:46:39;;;;;;;24.42;17.02;;;;;;;-141.97;61.39;47417.22;5015045;28;20258;-86
2023/09/17 07:49:04;;;;;;;35.63;22.70;;;;;;;-141.97;60.73;47492.16;5012766;28;20215;-87
2023/09/17 07:51:30;;;;;;;21.83;16.25;;;;;;;-141.97;62.38;47559.44;5014178;28;20176;-86
2023/09/17 07:53:55;;;;;;;34.97;23.73;;;;;;;-141.97;63.59;47553.69;5015403;28;20265;-87
2023/09/17 07:56:21;;;;;;;22.20;16.47;;;;;;;-141.97;62.41;47469.09;5036309;28;20163;-86
2023/09/17 07:58:47;;;;;;;25.23;17.30;;;;;;;-141.97;61.85;47388.38;5044622;28;20163;-86
2023/09/17 08:01:12;;;;;;;24.27;17.80;;;;;;;-141.97;61.71;47278.84;5018124;28;20250;-87
2023/09/17 08:03:37;;;;;;;24.88;15.45;;;;;;;-141.97;59.38;47728.59;5015156;28;20201;-86
2023/09/17 08:06:03;;;;;;;23.25;16.00;;;;;;;-141.97;59.28;47561.38;5016322;28;20263;-86
2023/09/17 08:08:29;;;;;;;22.73;15.40;;;;;;;-141.97;58.00;47324.97;5015057;28;20165;-86
2023/09/17 08:10:54;;;;;;;25.92;15.38;;;;;;;-141.97;57.38;47753.56;5020896;28;20559;-87
2023/09/17 08:13:20;;;;;;;23.23;15.52;;;;;;;-141.97;56.56;47413.38;5013750;28;20224;-86
2023/09/17 08:15:49;;;;;;;20.02;16.13;;;;;;;-141.97;57.26;47717.06;5014984;28;20169;-86
2023/09/17 08:18:14;;;;;;;23.20;15.32;;;;;;;-141.97;57.21;47515.22;5019754;28;20166;-86
2023/09/17 08:20:40;;;;;;;21.80;15.45;;;;;;;-141.97;56.43;47553.69;5045127;28;20345;-86
2023/09/17 08:23:05;;;;;;;21.05;15.25;;;;;;;-141.97;55.37;47742.03;5013896;28;20200;-88
2023/09/17 08:25:33;;;;;;;19.48;15.48;;;;;;;-141.97;55.50;47669.00;5017793;28;20173;-87
2023/09/17 08:27:59;;;;;;;20.60;14.73;;;;;;;-141.97;56.63;47519.06;5041313;28;20164;-85
2023/09/17 08:30:24;;;;;;;23.95;15.50;;;;;;;-141.97;57.97;47690.16;5014166;28;20168;-87
2023/09/17 08:32:49;;;;;;;23.05;15.77;;;;;;;-141.97;56.83;47497.94;5028863;28;20177;-86
2023/09/17 08:35:15;;;;;;;21.58;14.95;;;;;;;-141.97;54.20;47446.03;5014312;28;20518;-87
2023/09/17 08:37:43;;;;;;;21.60;14.90;;;;;;;-141.97;54.05;47449.88;5013811;28;20669;-85
2023/09/17 08:40:14;;;;;;;19.67;15.15;;;;;;;-141.97;52.95;47780.47;5013741;28;20573;-86
2023/09/17 08:42:43;;;;;;;21.55;15.13;;;;;;;-141.97;51.90;47465.25;5017241;28;20876;-86
2023/09/17 08:45:10;;;;;;;19.35;14.98;;;;;;;-141.97;52.87;47563.28;5020448;28;20169;-85
2023/09/17 08:47:37;;;;;;;20.90;15.07;;;;;;;-141.97;53.12;47538.28;5017608;28;20173;-84
2023/09/17 08:50:09;;;;;;;21.05;15.20;;;;;;;-141.97;53.88;47324.97;5014419;28;20215;-86
2023/09/17 08:52:43;;;;;;;23.00;15.55;;;;;;;-141.97;54.62;47405.69;5014517;28;20169;-86
2023/09/17 08:55:10;;;;;;;22.85;15.60;;;;;;;-141.97;53.95;47519.06;5016221;28;20238;-84
2023/09/17 08:57:42;;;;;;;22.50;16.27;;;;;;;-141.97;54.95;47532.53;5050572;28;20175;-86
2023/09/17 09:00:10;;;;;;;21.60;13.95;;;;;;;-141.97;52.76;47747.81;5018444;28;20160;-87
2023/09/17 09:02:47;;;;;;;19.40;13.88;;;;;;;-141.97;51.29;47376.84;5040854;28;20753;-84
2023/09/17 09:05:17;;;;;;;22.75;14.57;;;;;;;-141.97;51.05;47542.16;5024987;28;20196;-88
2023/09/17 09:07:47;;;;;;;21.10;13.70;;;;;;;-141.97;50.38;47676.69;5026099;28;20241;-85
2023/09/17 09:10:14;;;;;;;20.10;14.07;;;;;;;-141.97;50.75;47422.97;5017069;28;20162;-85
2023/09/17 09:12:42;;;;;;;25.35;14.07;;;;;;;-141.97;49.68;47707.44;5049297;28;20650;-86
2023/09/17 09:15:09;;;;;;;20.10;14.10;;;;;;;-141.97;48.74;47655.53;5034735;28;20148;-84
2023/09/17 09:17:35;;;;;;;25.48;14.68;;;;;;;-141.97;47.89;47674.78;5023680;28;20194;-85
2023/09/17 09:20:03;;;;;;;22.67;14.00;;;;;;;-141.97;47.54;47323.03;5024263;28;20193;-86
2023/09/17 09:22:29;;;;;;;21.98;13.80;;;;;;;-141.97;47.43;47496.00;5052729;28;20181;-86
2023/09/17 09:24:54;;;;;;;19.42;13.63;;;;;;;-141.97;47.66;47469.09;5051792;28;20175;-87
2023/09/17 09:27:19;;;;;;;19.60;13.65;;;;;;;-141.97;45.87;47384.53;5019014;28;20163;-86
2023/09/17 09:29:45;;;;;;;20.63;13.75;;;;;;;-141.97;45.63;47465.25;5019785;28;20642;-85
2023/09/17 09:32:12;;;;;;;23.27;14.70;;;;;;;-141.97;46.85;47670.91;5016529;28;20199;-86
2023/09/17 09:34:39;;;;;;;20.42;14.95;;;;;;;-141.97;47.22;47526.75;5016121;28;20174;-88
2023/09/17 09:37:08;;;;;;;18.52;14.57;;;;;;;-141.97;46.45;47695.91;5027740;28;20186;-87
2023/09/17 09:39:37;;;;;;;23.83;14.23;;;;;;;-141.97;46.55;47511.38;5011314;28;20557;-85
2023/09/17 09:42:04;;;;;;;20.40;15.27;;;;;;;-141.97;47.95;47330.72;5012631;28;20192;-86
2023/09/17 09:44:31;;;;;;;20.55;14.95;;;;;;;-141.97;45.98;47346.09;5014054;28;20202;-87
2023/09/17 09:47:00;;;;;;;20.40;14.90;;;;;;;-141.97;45.13;47465.25;5014802;28;20262;-84
2023/09/17 09:49:26;;;;;;;18.70;13.60;;;;;;;-141.97;44.77;47442.19;5045728;28;20174;-87
2023/09/17 09:51:52;;;;;;;20.52;13.20;;;;;;;-141.97;44.34;47484.47;5019130;28;20171;-86
2023/09/17 09:54:20;;;;;;;23.55;13.70;;;;;;;-141.97;44.41;47357.63;5034512;28;20655;-86
2023/09/17 09:56:49;;;;;;;19.52;13.40;;;;;;;-141.97;43.23;47415.28;5013776;28;20182;-87
2023/09/17 09:59:15;;;;;;;22.60;13.80;;;;;;;-141.97;43.33;47503.69;5013110;28;20173;-85
2023/09/17 10:01:41;;;;;;;18.23;13.73;;;;;;;-141.97;43.34;47422.97;5027683;28;20599;-87
2023/09/17 10:04:11;;;;;;;19.55;13.00;;;;;;;-141.97;42.97;47707.44;5010738;28;20198;-87
2023/09/17 10:06:39;;;;;;;19.92;14.20;;;;;;;-141.97;43.17;47465.25;5011067;28;20191;-86
2023/09/17 10:09:06;;;;;;;21.30;14.02;;;;;;;-141.97;44.77;47701.69;5015828;28;20175;-87
2023/09/17 10:11:32;;;;;;;20.50;14.02;;;;;;;-141.97;44.82;47471.03;5017553;28;20214;-86
2023/09/17 10:14:07;;;;;;;19.95;14.07;;;;;;;-141.97;44.35;47484.47;5013303;28;20313;-86
2023/09/17 10:16:36;;;;;;;19.60;14.85;;;;;;;-141.97;45.74;47276.91;5014188;28;20611;-86
2023/09/17 10:19:04;;;;;;;20.20;14.40;;;;;;;-141.97;45.92;47472.94;5012203;28;20171;-87
2023/09/17 10:21:33;;;;;;;21.40;14.48;;;;;;;-141.97;45.65;47353.78;5016751;28;20162;-87
2023/09/17 10:24:00;;;;;;;20.67;14.60;;;;;;;-141.97;45.03;47586.34;5023336;28;20254;-87
2023/09/17 10:26:32;;;;;;;19.42;14.00;;;;;;;-141.97;44.45;47303.81;5023393;28;20166;-88
2023/09/17 10:29:00;;;;;;;21.30;13.73;;;;;;;-141.97;45.32;47703.59;5018562;28;20224;-88
2023/09/17 10:31:26;;;;;;;20.13;13.73;;;;;;;-141.97;44.52;47467.19;5022840;28;20195;-88
2023/09/17 10:33:53;;;;;;;18.33;13.30;;;;;;;-141.97;44.49;47311.50;5032859;28;20190;-89
2023/09/17 10:36:18;;;;;;;18.45;12.38;;;;;;;-141.97;44.96;47649.78;5034390;28;20150;-87
2023/09/17 10:38:46;;;;;;;18.27;12.02;;;;;;;-141.97;45.00;47505.63;5029192;28;20557;-88
2023/09/17 10:41:13;;;;;;;17.75;12.45;;;;;;;-141.97;43.77;47276.91;5018202;28;20518;-87
2023/09/17 10:43:39;;;;;;;19.20;13.10;;;;;;;-141.97;43.67;47376.84;5012881;28;20193;-87
2023/09/17 10:46:06;;;;;;;17.25;12.50;;;;;;;-141.97;43.29;47255.78;5012550;28;20635;-87
2023/09/17 10:48:33;;;;;;;19.50;12.75;;;;;;;-141.97;42.75;47176.97;5012130;28;20164;-88
2023/09/17 10:51:00;;;;;;;19.83;12.80;;;;;;;-141.97;42.17;47280.75;5014224;28;20719;-87
2023/09/17 10:53:26;;;;;;;19.70;13.02;;;;;;;-141.97;41.55;47465.25;5012188;28;20502;-87
2023/09/17 10:56:00;;;;;;;17.23;12.32;;;;;;;-141.97;42.08;47411.44;5011239;28;20196;-88
2023/09/17 10:58:40;;;;;;;21.05;12.73;;;;;;;-141.97;42.54;47669.00;5011627;28;20183;-88
2023/09/17 11:01:08;;;;;;;20.42;12.82;;;;;;;-141.97;42.57;47280.75;5012820;28;20205;-88